Leader, Canada
Current Conditions -  °F | °C
As of 11:00 AM on Thursday 23 Oct 2014 (Local Time) from CYKY Reporting Station
Broken Clouds Broken Clouds  
Wind Chill: 52°   Ceiling: 10000
Heat Index: 52°   Visibility: 15mi
Dew Point: 41°   Wind: 17mph
Humidity: 67%   Direction: 180°S
Pressure: 29.56"   Gusts: NA
Location:  50.89°N, 109.54°W
Report Text: CYKY 231700Z 18015KT 15SM SCT045 BKN100 BKN240 11/05 A2956 RMK SC4AC2CI1 SLP019 DENSITY ALT 2700FT
Loading
Personal Weather Stations






























Interactive Weather Map
Tropical Storm Tracking
New forecast layout! Learn more

10-Day Weather Forecast

Advertisements
Track Severe Weather on mobile